createdAt,value
2023-01-20T00:00:16.440Z,96.61
2023-01-20T00:02:42.981Z,97.63
2023-01-20T00:05:09.527Z,97.81
2023-01-20T00:07:36.116Z,98.52
2023-01-20T00:10:02.603Z,97.95
2023-01-20T00:12:30.630Z,97.81
2023-01-20T00:14:57.308Z,97.86
2023-01-20T00:17:23.773Z,98.92
2023-01-20T00:19:50.239Z,99.87
2023-01-20T00:22:16.711Z,100.00
2023-01-20T00:24:43.167Z,100.00
2023-01-20T00:27:09.655Z,100.00
2023-01-20T00:29:36.103Z,100.00
2023-01-20T00:32:02.612Z,100.00
2023-01-20T00:34:29.112Z,100.00
2023-01-20T00:36:55.578Z,100.00
2023-01-20T00:39:22.132Z,100.00
2023-01-20T00:41:48.639Z,100.00
2023-01-20T00:44:15.097Z,100.00
2023-01-20T00:46:41.769Z,100.00
2023-01-20T00:49:09.300Z,100.00
2023-01-20T00:51:35.757Z,100.00
2023-01-20T00:54:02.288Z,100.00
2023-01-20T00:56:28.787Z,100.00
2023-01-20T00:58:55.386Z,100.00
2023-01-20T01:01:22.431Z,100.00
2023-01-20T01:03:49.109Z,100.00
2023-01-20T01:06:16.613Z,100.00
2023-01-20T01:08:44.005Z,100.00
2023-01-20T01:11:11.449Z,100.00
2023-01-20T01:13:40.909Z,100.00
2023-01-20T01:16:11.814Z,100.00
2023-01-20T01:18:38.356Z,100.00
2023-01-20T01:21:08.898Z,100.00
2023-01-20T01:23:35.483Z,100.00
2023-01-20T01:26:01.969Z,100.00
2023-01-20T01:28:28.433Z,100.00
2023-01-20T01:30:54.990Z,100.00
2023-01-20T01:33:21.536Z,100.00
2023-01-20T01:35:54.733Z,100.00
2023-01-20T01:38:21.249Z,100.00
2023-01-20T01:40:51.563Z,100.00
2023-01-20T01:43:25.781Z,100.00
2023-01-20T01:45:52.416Z,100.00
2023-01-20T01:48:23.972Z,100.00
2023-01-20T01:50:53.819Z,100.00
2023-01-20T01:53:21.026Z,100.00
2023-01-20T01:55:49.609Z,100.00
2023-01-20T01:58:17.772Z,100.00
2023-01-20T02:00:44.491Z,100.00
2023-01-20T02:03:11.909Z,100.00
2023-01-20T02:05:39.005Z,100.00
2023-01-20T02:08:06.740Z,100.00
2023-01-20T02:10:33.279Z,100.00
2023-01-20T02:13:00.440Z,100.00
2023-01-20T02:15:56.469Z,100.00
2023-01-20T02:18:36.719Z,100.00
2023-01-20T02:21:09.426Z,100.00
2023-01-20T02:23:55.060Z,100.00
2023-01-20T02:26:37.890Z,100.00
2023-01-20T02:29:07.479Z,100.00
2023-01-20T02:31:52.666Z,100.00
2023-01-20T02:34:28.008Z,100.00
2023-01-20T02:36:57.115Z,100.00
2023-01-20T02:39:27.405Z,100.00
2023-01-20T02:41:54.312Z,100.00
2023-01-20T02:44:39.865Z,100.00
2023-01-20T02:47:25.261Z,100.00
2023-01-20T02:49:59.250Z,100.00
2023-01-20T02:52:26.975Z,100.00
2023-01-20T02:54:54.991Z,100.00
2023-01-20T02:57:28.526Z,100.00
2023-01-20T02:59:57.301Z,100.00
2023-01-20T03:02:25.622Z,100.00
2023-01-20T03:05:02.516Z,100.00
2023-01-20T03:07:31.342Z,100.00
2023-01-20T03:10:02.044Z,100.00
2023-01-20T03:12:36.380Z,100.00
2023-01-20T03:15:03.097Z,100.00
2023-01-20T03:17:29.579Z,100.00
2023-01-20T03:19:56.413Z,100.00
2023-01-20T03:22:22.920Z,100.00
2023-01-20T03:24:49.499Z,100.00
2023-01-20T03:27:15.969Z,100.00
2023-01-20T03:29:42.529Z,100.00
2023-01-20T03:32:11.272Z,100.00
2023-01-20T03:34:39.718Z,100.00
2023-01-20T03:37:06.786Z,100.00
2023-01-20T03:39:34.271Z,100.00
2023-01-20T03:42:00.755Z,100.00
2023-01-20T03:44:30.276Z,100.00
2023-01-20T03:47:20.996Z,100.00
2023-01-20T03:50:06.158Z,100.00
2023-01-20T03:52:47.249Z,100.00
2023-01-20T03:55:22.838Z,100.00
2023-01-20T03:58:03.455Z,100.00
2023-01-20T04:00:31.320Z,100.00
2023-01-20T04:03:00.116Z,100.00
2023-01-20T04:05:27.145Z,100.00
2023-01-20T04:07:56.354Z,100.00
2023-01-20T04:10:23.473Z,100.00
2023-01-20T04:12:49.963Z,100.00
2023-01-20T04:15:17.292Z,100.00
2023-01-20T04:17:44.168Z,100.00
2023-01-20T04:20:13.477Z,100.00
2023-01-20T04:22:47.829Z,100.00
2023-01-20T04:25:24.818Z,100.00
2023-01-20T04:27:51.499Z,100.00
2023-01-20T04:30:18.320Z,100.00
2023-01-20T04:32:44.893Z,100.00
2023-01-20T04:35:13.697Z,100.00
2023-01-20T04:37:40.337Z,100.00
2023-01-20T04:40:07.101Z,100.00
2023-01-20T04:42:33.596Z,100.00
2023-01-20T04:45:00.124Z,100.00
2023-01-20T04:47:29.635Z,100.00
2023-01-20T04:49:56.130Z,100.00
2023-01-20T04:52:22.809Z,100.00
2023-01-20T04:54:49.239Z,100.00
2023-01-20T04:57:15.708Z,100.00
2023-01-20T04:59:42.717Z,100.00
2023-01-20T05:02:09.208Z,100.00
2023-01-20T05:04:36.458Z,100.00
2023-01-20T05:07:02.954Z,100.00
2023-01-20T05:09:29.415Z,100.00
2023-01-20T05:11:55.883Z,100.00
2023-01-20T05:14:22.356Z,100.00
2023-01-20T05:16:48.931Z,100.00
2023-01-20T05:19:15.414Z,100.00
2023-01-20T05:21:42.658Z,100.00
2023-01-20T05:24:09.267Z,100.00
2023-01-20T05:26:35.753Z,100.00
2023-01-20T05:29:02.742Z,100.00
2023-01-20T05:31:29.618Z,100.00
2023-01-20T05:33:56.122Z,100.00
2023-01-20T05:36:22.765Z,100.00
2023-01-20T05:38:49.236Z,100.00
2023-01-20T05:41:15.753Z,100.00
2023-01-20T05:43:42.329Z,100.00
2023-01-20T05:46:08.876Z,100.00
2023-01-20T05:48:35.379Z,100.00
2023-01-20T05:51:01.938Z,100.00
2023-01-20T05:53:28.390Z,100.00
2023-01-20T05:55:58.970Z,100.00
2023-01-20T05:58:25.484Z,100.00
2023-01-20T06:00:52.102Z,100.00
2023-01-20T06:03:18.638Z,100.00
2023-01-20T06:05:45.095Z,100.00
2023-01-20T06:08:11.565Z,100.00
2023-01-20T06:10:38.204Z,100.00
2023-01-20T06:13:04.675Z,100.00
2023-01-20T06:15:31.218Z,100.00
2023-01-20T06:17:57.698Z,100.00
2023-01-20T06:20:24.186Z,100.00
2023-01-20T06:22:54.755Z,100.00
2023-01-20T06:25:21.447Z,100.00
2023-01-20T06:27:47.862Z,100.00
2023-01-20T06:30:14.451Z,100.00
2023-01-20T06:32:41.034Z,100.00
2023-01-20T06:35:09.349Z,100.00
2023-01-20T06:37:37.594Z,100.00
2023-01-20T06:40:04.245Z,100.00
2023-01-20T06:42:31.351Z,100.00
2023-01-20T06:44:57.786Z,100.00
2023-01-20T06:47:24.239Z,100.00
2023-01-20T06:49:50.719Z,100.00
2023-01-20T06:52:17.152Z,100.00
2023-01-20T06:54:43.596Z,98.42
2023-01-20T06:57:10.120Z,96.35
2023-01-20T06:59:36.636Z,94.07
2023-01-20T07:02:03.212Z,93.10
2023-01-20T07:04:29.759Z,91.42
2023-01-20T07:06:56.256Z,91.07
2023-01-20T07:09:22.692Z,90.16
2023-01-20T07:11:49.273Z,87.71
2023-01-20T07:14:15.752Z,85.07
2023-01-20T07:16:42.428Z,82.96
2023-01-20T07:19:08.914Z,79.73
2023-01-20T07:21:35.429Z,78.11
2023-01-20T07:24:02.334Z,76.05
2023-01-20T07:26:28.925Z,74.35
2023-01-20T07:28:55.388Z,72.69
2023-01-20T07:31:23.269Z,71.12
2023-01-20T07:33:49.959Z,72.57
2023-01-20T07:36:17.265Z,72.33
2023-01-20T07:38:46.279Z,73.51
2023-01-20T07:41:16.328Z,71.17
2023-01-20T07:43:45.390Z,69.25
2023-01-20T07:46:12.281Z,71.08
2023-01-20T07:48:38.801Z,69.20
2023-01-20T07:51:06.962Z,66.91
2023-01-20T07:53:40.817Z,66.78
2023-01-20T07:56:11.482Z,65.83
2023-01-20T07:58:38.443Z,65.71
2023-01-20T08:01:09.239Z,66.35
2023-01-20T08:03:35.822Z,64.19
2023-01-20T08:06:06.279Z,64.72
2023-01-20T08:08:33.180Z,62.39
2023-01-20T08:11:01.281Z,64.61
2023-01-20T08:13:28.843Z,64.86
2023-01-20T08:15:55.849Z,64.61
2023-01-20T08:18:22.440Z,62.55
2023-01-20T08:20:49.007Z,62.87
2023-01-20T08:23:15.446Z,63.39
2023-01-20T08:25:41.933Z,62.02
2023-01-20T08:28:08.398Z,61.33
2023-01-20T08:30:35.334Z,62.48
2023-01-20T08:33:02.045Z,62.05
2023-01-20T08:35:28.710Z,61.43
2023-01-20T08:37:55.458Z,61.79
2023-01-20T08:40:21.999Z,60.64
2023-01-20T08:42:48.481Z,60.81
2023-01-20T08:45:15.254Z,60.60
2023-01-20T08:47:45.780Z,59.45
2023-01-20T08:50:13.486Z,60.41
2023-01-20T08:52:40.385Z,59.41
2023-01-20T08:55:07.016Z,59.50
2023-01-20T08:57:33.455Z,59.15
2023-01-20T08:59:59.990Z,58.97
2023-01-20T09:02:26.560Z,58.58
2023-01-20T09:04:54.474Z,57.76
2023-01-20T09:07:20.961Z,57.42
2023-01-20T09:09:47.462Z,56.43
2023-01-20T09:12:13.931Z,57.12
2023-01-20T09:14:40.855Z,56.57
2023-01-20T09:17:07.482Z,58.07
2023-01-20T09:19:34.138Z,57.11
2023-01-20T09:22:00.664Z,57.24
2023-01-20T09:24:27.140Z,56.03
2023-01-20T09:26:53.791Z,56.49
2023-01-20T09:29:20.693Z,56.14
2023-01-20T09:31:58.052Z,56.67
2023-01-20T09:34:26.470Z,55.54
2023-01-20T09:36:52.964Z,55.46
2023-01-20T09:39:38.504Z,55.67
2023-01-20T09:42:37.889Z,54.95
2023-01-20T09:45:10.543Z,54.70
2023-01-20T09:47:41.920Z,55.11
2023-01-20T09:50:42.434Z,54.66
2023-01-20T09:53:15.558Z,54.20
2023-01-20T09:55:51.367Z,55.43
2023-01-20T09:58:35.004Z,54.60
2023-01-20T10:01:06.014Z,54.31
2023-01-20T10:03:40.915Z,53.47
2023-01-20T10:06:12.933Z,52.84
2023-01-20T10:08:55.924Z,53.26
2023-01-20T10:11:33.358Z,53.95
2023-01-20T10:14:06.413Z,54.11
2023-01-20T10:16:39.809Z,53.39
2023-01-20T10:19:12.812Z,53.68
2023-01-20T10:21:48.055Z,52.54
2023-01-20T10:24:24.468Z,52.47
2023-01-20T10:26:54.035Z,52.80
2023-01-20T10:29:30.533Z,52.45
2023-01-20T10:31:59.230Z,52.40
2023-01-20T10:34:27.640Z,52.61
2023-01-20T10:37:00.824Z,52.97
2023-01-20T10:39:42.653Z,51.71
2023-01-20T10:42:13.732Z,53.11
2023-01-20T10:44:40.511Z,52.05
2023-01-20T10:47:06.987Z,52.26
2023-01-20T10:49:36.629Z,51.39
2023-01-20T10:52:03.173Z,52.20
2023-01-20T10:54:32.784Z,51.89
2023-01-20T10:57:02.039Z,52.16
2023-01-20T10:59:31.056Z,51.65
2023-01-20T11:02:11.536Z,52.80
2023-01-20T11:04:39.048Z,51.55
2023-01-20T11:07:08.683Z,51.64
2023-01-20T11:09:37.620Z,52.13
2023-01-20T11:12:09.736Z,51.42
2023-01-20T11:14:36.503Z,51.54
2023-01-20T11:17:05.243Z,51.92
2023-01-20T11:19:58.126Z,51.59
2023-01-20T11:22:33.171Z,51.87
2023-01-20T11:25:00.731Z,52.22
2023-01-20T11:27:29.664Z,51.51
2023-01-20T11:29:58.821Z,51.96
2023-01-20T11:32:33.745Z,51.85
2023-01-20T11:35:01.380Z,52.68
2023-01-20T11:37:35.702Z,52.18
2023-01-20T11:40:04.726Z,51.24
2023-01-20T11:42:42.138Z,52.12
2023-01-20T11:45:22.218Z,52.04
2023-01-20T11:48:11.593Z,52.02
2023-01-20T11:50:45.445Z,52.40
2023-01-20T11:53:13.877Z,52.28
2023-01-20T11:55:50.928Z,52.72
2023-01-20T11:58:19.553Z,51.05
2023-01-20T12:00:46.234Z,51.94
2023-01-20T12:03:18.538Z,51.26
2023-01-20T12:05:56.087Z,51.38
2023-01-20T12:08:34.833Z,51.27
2023-01-20T12:11:04.784Z,51.47
2023-01-20T12:13:56.034Z,51.21
2023-01-20T12:16:24.577Z,51.75
2023-01-20T12:19:02.109Z,51.71
2023-01-20T12:21:34.150Z,52.40
2023-01-20T12:24:04.680Z,51.87
2023-01-20T12:26:34.321Z,51.10
2023-01-20T12:29:10.043Z,51.53
2023-01-20T12:31:36.609Z,51.93
2023-01-20T12:34:03.059Z,51.93
2023-01-20T12:36:35.543Z,51.73
2023-01-20T12:39:02.008Z,51.76
2023-01-20T12:41:41.048Z,50.89
2023-01-20T12:44:23.642Z,50.79
2023-01-20T12:47:02.201Z,50.55
2023-01-20T12:49:31.700Z,51.59
2023-01-20T12:51:58.103Z,51.02
2023-01-20T12:54:47.901Z,50.64
2023-01-20T12:57:15.003Z,51.57
2023-01-20T12:59:55.682Z,51.92
2023-01-20T13:02:22.156Z,51.55
2023-01-20T13:04:54.719Z,51.34
2023-01-20T13:07:30.130Z,51.58
2023-01-20T13:10:10.295Z,51.15
2023-01-20T13:13:00.116Z,50.45
2023-01-20T13:15:26.651Z,50.74
2023-01-20T13:17:56.121Z,50.72
2023-01-20T13:20:25.159Z,51.30
2023-01-20T13:22:52.800Z,50.50
2023-01-20T13:25:19.974Z,51.95
2023-01-20T13:27:47.793Z,51.52
2023-01-20T13:30:34.587Z,50.86
2023-01-20T13:33:08.513Z,50.58
2023-01-20T13:35:53.368Z,51.10
2023-01-20T13:38:30.816Z,51.66
2023-01-20T13:41:00.236Z,51.80
2023-01-20T13:43:34.551Z,51.18
2023-01-20T13:46:04.345Z,51.75
2023-01-20T13:48:32.234Z,52.24
2023-01-20T13:51:17.451Z,51.99
2023-01-20T13:53:43.936Z,51.55
2023-01-20T13:56:26.731Z,51.46
2023-01-20T13:58:54.044Z,50.55
2023-01-20T14:01:28.861Z,51.50
2023-01-20T14:04:02.727Z,50.73
2023-01-20T14:06:29.471Z,50.49
2023-01-20T14:08:55.918Z,50.93
2023-01-20T14:11:26.555Z,50.41
2023-01-20T14:13:53.077Z,49.10
2023-01-20T14:16:19.718Z,50.06
2023-01-20T14:18:46.233Z,50.51
2023-01-20T14:21:21.318Z,50.31
2023-01-20T14:23:47.929Z,51.40
2023-01-20T14:26:20.205Z,49.51
2023-01-20T14:28:48.861Z,50.46
2023-01-20T14:31:16.977Z,50.95
2023-01-20T14:33:47.859Z,50.32
2023-01-20T14:36:18.773Z,50.42
2023-01-20T14:38:57.330Z,50.80
2023-01-20T14:41:27.392Z,50.62
2023-01-20T14:43:54.035Z,50.49
2023-01-20T14:46:20.619Z,50.75
2023-01-20T14:48:47.331Z,49.82
2023-01-20T14:51:14.306Z,50.14
2023-01-20T14:53:40.792Z,50.21
2023-01-20T14:56:08.237Z,49.95
2023-01-20T14:58:36.145Z,50.32
2023-01-20T15:01:06.625Z,50.05
2023-01-20T15:03:33.397Z,49.90
2023-01-20T15:06:01.410Z,49.69
2023-01-20T15:08:33.588Z,49.91
2023-01-20T15:11:11.202Z,49.47
2023-01-20T15:13:38.133Z,49.55
2023-01-20T15:16:13.955Z,50.44
2023-01-20T15:18:40.528Z,49.68
2023-01-20T15:21:23.838Z,50.03
2023-01-20T15:23:52.792Z,50.03
2023-01-20T15:26:27.689Z,49.65
2023-01-20T15:28:54.621Z,49.98
2023-01-20T15:31:21.403Z,49.53
2023-01-20T15:33:47.982Z,49.50
2023-01-20T15:36:20.275Z,50.04
2023-01-20T15:38:47.077Z,49.33
2023-01-20T15:41:13.847Z,50.00
2023-01-20T15:43:41.453Z,50.10
2023-01-20T15:46:11.282Z,49.21
2023-01-20T15:48:37.806Z,50.47
2023-01-20T15:51:07.069Z,50.49
2023-01-20T15:53:34.398Z,50.40
2023-01-20T15:56:01.029Z,50.24
2023-01-20T15:58:28.723Z,51.03
2023-01-20T16:00:56.454Z,52.11
2023-01-20T16:03:26.647Z,51.87
2023-01-20T16:05:54.238Z,51.92
2023-01-20T16:08:22.037Z,52.96
2023-01-20T16:10:48.808Z,52.84
2023-01-20T16:13:15.663Z,52.61
2023-01-20T16:15:42.900Z,53.26
2023-01-20T16:18:13.550Z,54.55
2023-01-20T16:20:40.498Z,53.21
2023-01-20T16:23:07.291Z,52.74
2023-01-20T16:25:33.829Z,52.93
2023-01-20T16:28:00.603Z,53.51
2023-01-20T16:30:27.433Z,54.15
2023-01-20T16:32:53.906Z,53.92
2023-01-20T16:35:21.132Z,53.55
2023-01-20T16:37:47.838Z,53.76
2023-01-20T16:40:18.562Z,54.41
2023-01-20T16:42:45.572Z,55.29
2023-01-20T16:45:25.805Z,56.46
2023-01-20T16:47:52.556Z,56.08
2023-01-20T16:50:19.137Z,57.81
2023-01-20T16:52:45.937Z,58.03
2023-01-20T16:55:13.581Z,57.21
2023-01-20T16:57:40.204Z,56.71
2023-01-20T17:00:07.395Z,56.61
2023-01-20T17:02:38.972Z,55.42
2023-01-20T17:05:06.736Z,55.72
2023-01-20T17:07:33.321Z,55.98
2023-01-20T17:09:59.909Z,54.67
2023-01-20T17:12:26.391Z,56.04
2023-01-20T17:14:52.819Z,56.57
2023-01-20T17:17:19.479Z,56.74
2023-01-20T17:19:45.985Z,58.20
2023-01-20T17:22:12.519Z,56.72
2023-01-20T17:24:39.331Z,55.89
2023-01-20T17:27:05.808Z,56.37
2023-01-20T17:29:32.243Z,56.72
2023-01-20T17:31:58.713Z,57.76
2023-01-20T17:34:25.292Z,58.98
2023-01-20T17:36:51.727Z,58.73
2023-01-20T17:39:18.175Z,58.13
2023-01-20T17:41:44.606Z,57.60
2023-01-20T17:44:12.302Z,57.53
2023-01-20T17:46:38.738Z,56.32
2023-01-20T17:49:06.902Z,56.76
2023-01-20T17:51:33.744Z,56.18
2023-01-20T17:54:03.410Z,56.34
2023-01-20T17:56:30.669Z,56.53
2023-01-20T17:58:57.179Z,56.79
2023-01-20T18:01:25.552Z,57.60
2023-01-20T18:03:53.557Z,56.93
2023-01-20T18:06:21.643Z,57.43
2023-01-20T18:08:52.829Z,57.46
2023-01-20T18:11:20.342Z,58.74
2023-01-20T18:13:47.247Z,58.95
2023-01-20T18:16:14.802Z,59.13
2023-01-20T18:18:43.188Z,59.80
2023-01-20T18:21:14.015Z,60.75
2023-01-20T18:23:40.884Z,61.10
2023-01-20T18:26:08.818Z,60.67
2023-01-20T18:28:35.802Z,60.60
2023-01-20T18:31:07.952Z,59.65
2023-01-20T18:33:38.222Z,59.34
2023-01-20T18:36:04.886Z,59.02
2023-01-20T18:38:31.335Z,60.06
2023-01-20T18:40:57.941Z,60.86
2023-01-20T18:43:24.604Z,60.89
2023-01-20T18:45:54.082Z,61.47
2023-01-20T18:48:22.776Z,62.61
2023-01-20T18:50:49.183Z,63.30
2023-01-20T18:53:15.659Z,63.54
2023-01-20T18:55:42.136Z,63.26
2023-01-20T18:58:09.652Z,63.03
2023-01-20T19:00:36.124Z,63.55
2023-01-20T19:03:02.597Z,62.93
2023-01-20T19:05:30.963Z,63.12
2023-01-20T19:07:57.397Z,63.17
2023-01-20T19:10:23.800Z,64.11
2023-01-20T19:12:51.392Z,63.99
2023-01-20T19:15:17.980Z,62.19
2023-01-20T19:17:44.467Z,61.62
2023-01-20T19:20:11.221Z,61.84
2023-01-20T19:22:37.776Z,61.38
2023-01-20T19:25:04.351Z,61.74
2023-01-20T19:27:31.082Z,60.74
2023-01-20T19:29:57.534Z,61.21
2023-01-20T19:32:24.048Z,60.78
2023-01-20T19:34:50.487Z,60.62
2023-01-20T19:37:16.918Z,60.80
2023-01-20T19:39:43.381Z,61.08
2023-01-20T19:42:09.821Z,60.95
2023-01-20T19:44:36.267Z,60.94
2023-01-20T19:47:04.378Z,61.32
2023-01-20T19:49:31.326Z,60.11
2023-01-20T19:51:59.652Z,61.25
2023-01-20T19:54:28.540Z,60.75
2023-01-20T19:56:55.021Z,61.11
2023-01-20T19:59:21.590Z,61.76
2023-01-20T20:01:48.147Z,61.60
2023-01-20T20:04:14.709Z,61.48
2023-01-20T20:06:44.981Z,61.35
2023-01-20T20:09:15.671Z,61.42
2023-01-20T20:11:43.065Z,61.90
2023-01-20T20:14:11.911Z,61.49
2023-01-20T20:16:38.887Z,61.68
2023-01-20T20:19:06.074Z,62.65
2023-01-20T20:21:33.427Z,63.48
2023-01-20T20:24:01.251Z,63.63
2023-01-20T20:26:31.750Z,64.41
2023-01-20T20:28:58.757Z,65.28
2023-01-20T20:31:35.603Z,64.92
2023-01-20T20:34:02.869Z,65.37
2023-01-20T20:36:30.949Z,64.98
2023-01-20T20:38:58.813Z,65.35
2023-01-20T20:41:33.191Z,65.15
2023-01-20T20:44:00.800Z,65.78
2023-01-20T20:46:28.176Z,66.59
2023-01-20T20:49:01.352Z,68.92
2023-01-20T20:51:28.863Z,69.17
2023-01-20T20:53:56.234Z,69.18
2023-01-20T20:56:22.957Z,68.12
2023-01-20T20:59:00.985Z,67.38
2023-01-20T21:01:29.307Z,67.27
2023-01-20T21:03:57.780Z,65.92
2023-01-20T21:06:25.612Z,67.01
2023-01-20T21:08:52.653Z,61.51
2023-01-20T21:11:20.255Z,58.49
2023-01-20T21:13:49.145Z,56.75
2023-01-20T21:16:17.923Z,56.13
2023-01-20T21:18:44.360Z,56.67
2023-01-20T21:21:13.008Z,57.07
2023-01-20T21:23:42.530Z,58.22
2023-01-20T21:26:13.075Z,59.21
2023-01-20T21:28:40.636Z,60.71
2023-01-20T21:31:07.756Z,60.63
2023-01-20T21:33:35.697Z,60.75
2023-01-20T21:36:03.563Z,61.16
2023-01-20T21:38:31.340Z,60.92
2023-01-20T21:41:01.273Z,60.82
2023-01-20T21:43:51.519Z,60.84
2023-01-20T21:46:18.650Z,57.36
2023-01-20T21:49:03.859Z,56.40
2023-01-20T21:51:49.349Z,55.75
2023-01-20T21:54:16.243Z,56.29
2023-01-20T21:56:43.138Z,55.91
2023-01-20T21:59:09.966Z,54.84
2023-01-20T22:01:36.435Z,55.17
2023-01-20T22:04:03.247Z,56.02
2023-01-20T22:06:29.797Z,56.65
2023-01-20T22:08:58.402Z,57.18
2023-01-20T22:11:25.606Z,58.40
2023-01-20T22:13:55.839Z,58.61
2023-01-20T22:16:23.563Z,59.35
2023-01-20T22:18:50.588Z,58.86
2023-01-20T22:21:17.434Z,58.32
2023-01-20T22:23:43.972Z,57.32
2023-01-20T22:26:10.829Z,56.09
2023-01-20T22:28:40.293Z,55.21
2023-01-20T22:31:07.639Z,54.28
2023-01-20T22:33:34.235Z,52.92
2023-01-20T22:36:01.019Z,53.39
2023-01-20T22:38:27.500Z,54.16
2023-01-20T22:40:54.018Z,52.84
2023-01-20T22:43:20.755Z,52.64
2023-01-20T22:45:48.395Z,53.23
2023-01-20T22:48:15.128Z,51.35
2023-01-20T22:50:41.667Z,51.78
2023-01-20T22:53:08.124Z,51.61
2023-01-20T22:55:34.653Z,51.07
2023-01-20T22:58:01.122Z,51.14
2023-01-20T23:00:27.601Z,50.98
2023-01-20T23:02:54.094Z,51.03
2023-01-20T23:05:20.530Z,50.72
2023-01-20T23:07:46.989Z,50.34
2023-01-20T23:10:33.433Z,50.16
2023-01-20T23:12:59.898Z,50.09
2023-01-20T23:15:26.385Z,49.96
2023-01-20T23:17:52.850Z,51.12
2023-01-20T23:20:19.441Z,49.94
2023-01-20T23:22:46.023Z,49.56
2023-01-20T23:25:12.479Z,50.52
2023-01-20T23:27:38.951Z,50.94
2023-01-20T23:30:05.751Z,50.44
2023-01-20T23:32:32.209Z,50.37
2023-01-20T23:34:58.661Z,50.17
2023-01-20T23:37:25.095Z,50.39
2023-01-20T23:39:52.944Z,50.46
2023-01-20T23:42:19.502Z,50.15
2023-01-20T23:44:45.925Z,50.21
2023-01-20T23:47:12.443Z,50.75
2023-01-20T23:49:38.874Z,50.64
2023-01-20T23:52:05.814Z,49.91
2023-01-20T23:54:32.314Z,50.41
2023-01-20T23:56:58.778Z,50.63
2023-01-20T23:59:25.226Z,50.76
